Time;durP1;ratioP1;P1;durP2;ratioP2;P2;SDS_P1;SDS_P2;PMS_P1;PMS_P2;Temp;Humidity;BMP_temperature;BMP_pressure;BME280_temperature;BME280_humidity;BME280_pressure;Samples;Min_cycle;Max_cycle;Signal;HPM_P1;HPM_P2
2022/07/17 00:01:08;;;;;;;6.40;3.95;;;;;;;16.71;100.00;97118.41;5041845;28;20460;-45
2022/07/17 00:03:36;;;;;;;7.35;3.95;;;;;;;16.68;100.00;97116.09;5034444;28;20148;-53
2022/07/17 00:06:07;;;;;;;9.05;3.80;;;;;;;16.72;100.00;97112.09;5041165;28;20553;-43
2022/07/17 00:08:35;;;;;;;5.25;3.25;;;;;;;16.44;100.00;97120.41;5042798;28;20084;-47
2022/07/17 00:11:04;;;;;;;6.68;3.38;;;;;;;16.67;100.00;97115.25;5041851;28;20084;-49
2022/07/17 00:13:32;;;;;;;7.88;3.30;;;;;;;16.53;100.00;97118.59;5042541;28;20076;-47
2022/07/17 00:16:01;;;;;;;5.43;2.80;;;;;;;16.64;100.00;97120.91;5040065;28;20085;-45
2022/07/17 00:18:29;;;;;;;6.72;3.00;;;;;;;16.33;100.00;97113.56;5040470;28;20076;-43
2022/07/17 00:20:57;;;;;;;6.43;3.17;;;;;;;16.32;100.00;97117.22;5042685;28;20079;-50
2022/07/17 00:23:27;;;;;;;3.97;3.00;;;;;;;16.31;100.00;97125.38;5046894;28;20480;-47
2022/07/17 00:25:56;;;;;;;5.45;2.97;;;;;;;16.25;100.00;97124.22;5042975;28;20080;-45
2022/07/17 00:28:25;;;;;;;9.55;4.10;;;;;;;16.30;100.00;97118.38;5044754;28;20079;-44
2022/07/17 00:30:53;;;;;;;7.07;4.13;;;;;;;16.04;100.00;97118.53;5042967;28;20083;-44
2022/07/17 00:33:22;;;;;;;7.57;3.95;;;;;;;15.90;100.00;97117.31;5044796;28;20084;-44
2022/07/17 00:35:50;;;;;;;8.02;4.00;;;;;;;15.96;100.00;97121.13;5047000;28;20487;-47
2022/07/17 00:38:19;;;;;;;5.32;3.80;;;;;;;16.07;100.00;97121.69;5044787;28;20069;-43
2022/07/17 00:40:54;;;;;;;6.10;3.55;;;;;;;16.02;100.00;97123.16;5044463;28;20559;-50
2022/07/17 00:43:22;;;;;;;8.40;3.47;;;;;;;16.06;100.00;97125.31;5043378;28;20080;-43
2022/07/17 00:45:58;;;;;;;5.72;3.30;;;;;;;16.00;100.00;97119.81;5045899;28;20514;-50
2022/07/17 00:48:27;;;;;;;7.70;3.35;;;;;;;15.86;100.00;97122.13;5031511;28;20077;-45
2022/07/17 00:50:56;;;;;;;5.10;2.92;;;;;;;15.95;100.00;97119.47;5046432;28;20061;-50
2022/07/17 00:53:24;;;;;;;8.27;2.80;;;;;;;15.90;100.00;97119.97;5046384;28;20068;-43
2022/07/17 00:55:56;;;;;;;4.67;2.57;;;;;;;15.94;100.00;97121.31;5044385;28;20069;-49
2022/07/17 00:58:25;;;;;;;;;;;;;;;15.95;100.00;97115.00;5047783;28;20717;-55
2022/07/17 01:00:55;;;;;;;3.75;2.58;;;;;;;15.87;100.00;97110.50;5043052;28;20399;-43
2022/07/17 01:03:25;;;;;;;4.35;2.90;;;;;;;15.80;100.00;97114.78;5049936;28;20088;-45
2022/07/17 01:05:54;;;;;;;5.40;3.00;;;;;;;15.72;100.00;97116.56;5045315;28;20076;-43
2022/07/17 01:08:22;;;;;;;3.50;2.63;;;;;;;15.74;100.00;97104.78;5046514;28;20491;-46
2022/07/17 01:10:51;;;;;;;5.22;2.88;;;;;;;15.69;100.00;97111.56;5042689;28;20069;-52
2022/07/17 01:13:21;;;;;;;6.10;2.50;;;;;;;15.62;100.00;97112.22;5029466;28;20088;-44
2022/07/17 01:15:50;;;;;;;4.95;2.20;;;;;;;15.60;100.00;97106.19;5042584;28;20065;-54
2022/07/17 01:18:18;;;;;;;3.65;2.22;;;;;;;15.54;100.00;97112.16;5044610;28;20463;-44
2022/07/17 01:20:49;;;;;;;6.63;2.60;;;;;;;15.48;100.00;97112.78;5043064;28;20073;-46
2022/07/17 01:23:20;;;;;;;5.03;2.90;;;;;;;15.56;100.00;97112.00;5044546;28;20087;-44
2022/07/17 01:25:48;;;;;;;3.72;2.75;;;;;;;15.61;100.00;97110.50;5045427;28;20157;-43
2022/07/17 01:28:17;;;;;;;3.13;2.40;;;;;;;15.55;100.00;97115.63;5046525;28;20472;-43
2022/07/17 01:30:47;;;;;;;7.38;2.90;;;;;;;15.63;100.00;97113.88;5044174;28;20080;-47
2022/07/17 01:33:15;;;;;;;4.40;2.80;;;;;;;15.50;100.00;97115.28;5045243;28;20076;-43
2022/07/17 01:35:44;;;;;;;5.55;2.50;;;;;;;15.61;100.00;97115.84;5027602;28;20076;-43
2022/07/17 01:38:13;;;;;;;3.88;2.78;;;;;;;15.48;100.00;97117.28;5044671;28;20083;-44
2022/07/17 01:40:43;;;;;;;3.85;2.70;;;;;;;15.49;100.00;97116.31;5043562;28;20069;-43
2022/07/17 01:43:11;;;;;;;4.60;2.90;;;;;;;15.47;100.00;97116.44;5043728;28;20416;-43
2022/07/17 01:45:40;;;;;;;4.50;3.00;;;;;;;15.40;100.00;97115.41;5043014;28;20057;-45
2022/07/17 01:48:08;;;;;;;5.78;2.78;;;;;;;15.31;100.00;97119.00;5044289;28;20111;-43
2022/07/17 01:50:37;;;;;;;4.07;3.00;;;;;;;15.22;100.00;97114.66;5045465;28;20507;-43
2022/07/17 01:53:06;;;;;;;6.07;3.05;;;;;;;15.18;100.00;97117.63;5044597;28;20502;-46
2022/07/17 01:55:34;;;;;;;4.30;2.90;;;;;;;15.08;100.00;97121.38;5043407;28;20060;-43
2022/07/17 01:58:05;;;;;;;6.47;3.30;;;;;;;15.03;100.00;97121.00;5044062;28;20319;-43
2022/07/17 02:00:33;;;;;;;4.88;3.10;;;;;;;15.31;100.00;97113.69;5043373;28;20462;-47
2022/07/17 02:03:02;;;;;;;4.28;2.70;;;;;;;15.19;100.00;97118.47;5042572;28;20087;-43
2022/07/17 02:05:30;;;;;;;6.20;2.90;;;;;;;15.21;100.00;97108.53;5043240;28;20092;-45
2022/07/17 02:07:59;;;;;;;6.80;3.30;;;;;;;14.96;100.00;97118.97;5045287;28;20068;-57
2022/07/17 02:10:27;;;;;;;5.07;2.90;;;;;;;15.10;100.00;97116.72;5042086;28;20061;-44
2022/07/17 02:12:57;;;;;;;8.15;3.35;;;;;;;14.98;100.00;97105.56;5043483;28;20071;-46
2022/07/17 02:15:27;;;;;;;4.82;3.47;;;;;;;14.84;100.00;97112.25;5042641;28;20056;-49
2022/07/17 02:17:56;;;;;;;5.32;3.47;;;;;;;14.79;100.00;97113.69;5041875;28;20071;-43
2022/07/17 02:20:25;;;;;;;5.35;3.30;;;;;;;14.88;100.00;97115.44;5042151;28;20094;-50
2022/07/17 02:22:54;;;;;;;7.07;3.22;;;;;;;14.84;100.00;97112.25;5043235;28;20072;-43
2022/07/17 02:25:22;;;;;;;7.18;2.88;;;;;;;14.95;100.00;97113.81;5044664;28;20085;-50
2022/07/17 02:27:51;;;;;;;7.82;3.30;;;;;;;15.01;100.00;97115.03;5045117;28;20545;-46
2022/07/17 02:30:19;;;;;;;8.55;3.45;;;;;;;14.90;100.00;97111.66;5045045;28;20372;-46
2022/07/17 02:32:49;;;;;;;5.05;2.83;;;;;;;14.90;100.00;97114.31;5039357;28;20471;-43
2022/07/17 02:35:18;;;;;;;6.53;3.70;;;;;;;14.83;100.00;97107.09;5042346;28;20429;-44
2022/07/17 02:37:46;;;;;;;5.93;3.28;;;;;;;14.69;100.00;97109.34;5027914;28;20068;-46
2022/07/17 02:40:14;;;;;;;7.25;3.40;;;;;;;14.61;100.00;97119.03;5043670;28;20068;-43
2022/07/17 02:42:43;;;;;;;8.63;3.20;;;;;;;14.41;100.00;97118.34;5040836;28;20044;-48
2022/07/17 02:45:12;;;;;;;9.98;3.78;;;;;;;14.39;100.00;97117.69;5042629;28;20068;-46
2022/07/17 02:47:40;;;;;;;9.23;3.30;;;;;;;14.45;100.00;97109.94;5043633;28;20076;-48
2022/07/17 02:50:10;;;;;;;5.57;3.60;;;;;;;14.30;100.00;97113.28;5042215;28;20088;-43
2022/07/17 02:52:39;;;;;;;10.48;3.50;;;;;;;14.30;100.00;97115.91;5039606;28;20073;-49
2022/07/17 02:55:08;;;;;;;6.82;3.53;;;;;;;14.40;100.00;97129.94;5042077;28;20067;-48
2022/07/17 02:57:37;;;;;;;7.13;3.15;;;;;;;14.42;100.00;97130.66;5043728;28;20060;-46
2022/07/17 03:00:08;;;;;;;5.28;3.10;;;;;;;14.38;100.00;97127.47;5042565;28;20061;-46
2022/07/17 03:02:37;;;;;;;6.20;3.30;;;;;;;14.46;100.00;97129.34;5041775;28;20080;-47
2022/07/17 03:05:06;;;;;;;5.53;3.13;;;;;;;14.52;100.00;97128.78;5044238;28;20037;-46
2022/07/17 03:07:35;;;;;;;5.28;3.53;;;;;;;14.55;100.00;97127.63;5042905;28;20072;-51
2022/07/17 03:10:05;;;;;;;5.03;3.40;;;;;;;14.19;100.00;97125.78;5039273;28;20171;-51
2022/07/17 03:12:33;;;;;;;7.75;3.67;;;;;;;13.97;100.00;97119.09;5026148;28;20071;-43
2022/07/17 03:15:02;;;;;;;6.95;3.22;;;;;;;14.04;100.00;97121.13;5045919;28;20099;-50
2022/07/17 03:17:30;;;;;;;6.50;3.40;;;;;;;14.06;100.00;97124.47;5043327;28;20072;-45
2022/07/17 03:20:00;;;;;;;5.97;3.53;;;;;;;13.95;100.00;97118.41;5043474;28;20081;-46
2022/07/17 03:22:29;;;;;;;5.50;3.17;;;;;;;14.04;100.00;97118.47;5044212;28;20072;-50
2022/07/17 03:24:59;;;;;;;7.78;3.28;;;;;;;14.04;100.00;97124.63;5043650;28;20103;-52
2022/07/17 03:27:27;;;;;;;8.57;3.10;;;;;;;14.13;100.00;97118.41;5040006;28;20430;-47
2022/07/17 03:29:56;;;;;;;7.20;3.15;;;;;;;14.18;100.00;97117.97;5040352;28;20091;-44
2022/07/17 03:32:24;;;;;;;7.60;3.50;;;;;;;14.22;100.00;97120.16;5041367;28;20087;-43
2022/07/17 03:34:52;;;;;;;7.28;3.55;;;;;;;14.05;100.00;97128.94;5041124;28;20081;-45
2022/07/17 03:37:21;;;;;;;6.20;3.33;;;;;;;14.31;100.00;97133.50;5041326;28;20077;-43
2022/07/17 03:39:49;;;;;;;10.05;3.58;;;;;;;14.21;100.00;97125.59;5042786;28;20300;-46
2022/07/17 03:42:19;;;;;;;7.20;3.60;;;;;;;14.38;100.00;97129.25;5042667;28;20777;-48
2022/07/17 03:44:47;;;;;;;5.18;3.83;;;;;;;14.36;100.00;97120.63;5043229;28;20065;-43
2022/07/17 03:47:16;;;;;;;4.65;2.97;;;;;;;14.17;100.00;97126.91;5042313;28;20159;-49
2022/07/17 03:49:45;;;;;;;9.57;3.22;;;;;;;14.09;100.00;97117.06;5041872;28;20080;-46
2022/07/17 03:52:13;;;;;;;6.10;3.15;;;;;;;14.04;100.00;97123.78;5042178;28;20072;-44
2022/07/17 03:54:42;;;;;;;6.70;3.85;;;;;;;14.14;100.00;97128.06;5042678;28;20080;-47
2022/07/17 03:57:10;;;;;;;6.90;3.72;;;;;;;14.52;100.00;97130.56;5045839;28;20068;-52
2022/07/17 03:59:40;;;;;;;7.13;3.47;;;;;;;14.83;100.00;97131.84;5049470;28;20076;-50
2022/07/17 04:02:08;;;;;;;8.83;3.87;;;;;;;15.76;100.00;97132.06;5048692;28;20080;-46
2022/07/17 04:04:37;;;;;;;5.97;3.38;;;;;;;16.41;100.00;97131.38;5049996;28;20905;-43
2022/07/17 04:07:05;;;;;;;5.63;3.30;;;;;;;17.32;100.00;97117.88;5047389;28;20068;-52
2022/07/17 04:09:34;;;;;;;6.60;3.45;;;;;;;17.94;100.00;97125.16;5049124;28;20436;-44
2022/07/17 04:12:02;;;;;;;9.40;4.00;;;;;;;18.49;100.00;97120.66;5048524;28;20513;-44
2022/07/17 04:14:30;;;;;;;7.40;3.85;;;;;;;18.82;100.00;97113.22;5050914;28;20076;-44
2022/07/17 04:17:00;;;;;;;7.90;4.30;;;;;;;19.34;100.00;97114.25;5049183;28;20463;-45
2022/07/17 04:19:29;;;;;;;7.90;4.55;;;;;;;19.78;100.00;97113.44;5049444;28;20052;-44
2022/07/17 04:21:57;;;;;;;12.35;4.97;;;;;;;20.21;100.00;97110.88;5051249;28;20076;-53
2022/07/17 04:24:26;;;;;;;8.73;5.82;;;;;;;20.88;100.00;97109.69;5031707;28;20561;-52
2022/07/17 04:26:54;;;;;;;7.65;4.93;;;;;;;21.15;100.00;97105.34;5051161;28;20059;-45
2022/07/17 04:29:23;;;;;;;12.05;5.72;;;;;;;21.69;100.00;97107.38;5047679;28;20645;-50
2022/07/17 04:31:51;;;;;;;9.85;5.80;;;;;;;21.99;100.00;97116.00;5049267;28;20092;-49
2022/07/17 04:34:21;;;;;;;11.80;5.72;;;;;;;21.97;100.00;97113.47;5045915;28;20075;-54
2022/07/17 04:36:50;;;;;;;11.13;5.43;;;;;;;22.21;100.00;97117.53;5047944;28;20061;-46
2022/07/17 04:39:18;;;;;;;8.45;5.80;;;;;;;22.83;96.41;97110.19;5049481;28;20745;-44
2022/07/17 04:41:46;;;;;;;7.05;5.20;;;;;;;22.98;93.15;97104.63;5048787;28;20064;-55
2022/07/17 04:44:15;;;;;;;8.63;4.95;;;;;;;23.32;89.49;97108.13;5048963;28;20083;-45
2022/07/17 04:46:44;;;;;;;9.07;5.95;;;;;;;23.67;82.50;97106.88;5046618;28;20073;-47
2022/07/17 04:49:12;;;;;;;9.32;7.05;;;;;;;23.68;82.45;97107.69;5049160;28;20168;-44
2022/07/17 04:51:42;;;;;;;11.60;6.15;;;;;;;24.10;77.54;97114.34;5048841;28;20212;-49
2022/07/17 04:54:11;;;;;;;10.05;6.18;;;;;;;24.56;73.58;97112.47;5049097;28;20060;-44
2022/07/17 04:56:39;;;;;;;9.75;5.57;;;;;;;24.83;70.55;97113.94;5048282;28;20088;-46
2022/07/17 04:59:07;;;;;;;7.18;5.65;;;;;;;25.31;67.28;97116.06;5049835;28;20491;-53
2022/07/17 05:01:36;;;;;;;6.78;5.57;;;;;;;25.31;64.55;97115.25;5048656;28;20068;-49
2022/07/17 05:04:05;;;;;;;9.20;5.30;;;;;;;25.26;66.06;97115.94;5049909;28;20071;-44
2022/07/17 05:06:33;;;;;;;9.00;4.78;;;;;;;25.03;66.15;97123.78;5049279;28;20499;-47
2022/07/17 05:09:03;;;;;;;8.02;5.15;;;;;;;25.00;68.58;97126.91;5044713;28;20141;-44
2022/07/17 05:11:31;;;;;;;7.43;4.85;;;;;;;24.57;74.65;97120.38;5044707;28;20084;-46
2022/07/17 05:14:00;;;;;;;6.97;5.00;;;;;;;24.87;71.34;97114.34;5046480;28;20542;-48
2022/07/17 05:16:29;;;;;;;9.32;5.45;;;;;;;24.93;74.62;97123.44;5046304;28;20065;-46
2022/07/17 05:18:57;;;;;;;6.28;5.05;;;;;;;24.92;80.67;97119.91;5044559;28;20083;-46
2022/07/17 05:21:26;;;;;;;8.88;5.05;;;;;;;25.49;71.04;97115.25;5045592;28;20077;-50
2022/07/17 05:23:54;;;;;;;7.75;5.07;;;;;;;25.64;70.16;97112.22;5045892;28;20354;-53
2022/07/17 05:26:24;;;;;;;6.22;5.45;;;;;;;25.55;72.94;97124.38;5043697;28;20065;-51
2022/07/17 05:28:53;;;;;;;9.25;5.25;;;;;;;25.59;76.32;97117.47;5043130;28;20069;-48
2022/07/17 05:31:21;;;;;;;7.70;5.38;;;;;;;25.74;80.48;97120.63;5045967;28;20111;-51
2022/07/17 05:33:49;;;;;;;6.32;4.82;;;;;;;25.69;79.45;97116.94;5045020;28;20064;-58
2022/07/17 05:36:21;;;;;;;7.05;5.10;;;;;;;25.55;79.31;97113.56;5044776;28;20076;-50
2022/07/17 05:38:49;;;;;;;9.35;4.97;;;;;;;24.42;77.93;97119.00;5045342;28;20084;-46
2022/07/17 05:41:17;;;;;;;7.70;4.72;;;;;;;24.89;76.96;97116.84;5041453;28;20572;-44
2022/07/17 05:43:47;;;;;;;7.18;4.80;;;;;;;23.71;78.49;97119.88;5025051;28;20384;-50
2022/07/17 05:46:16;;;;;;;5.50;4.32;;;;;;;23.75;83.83;97121.97;5041554;28;20075;-50
2022/07/17 05:48:44;;;;;;;7.55;4.15;;;;;;;23.72;81.94;97124.25;5050342;28;20060;-47
2022/07/17 05:51:12;;;;;;;6.60;4.53;;;;;;;24.34;71.26;97128.97;5050538;28;20468;-45
2022/07/17 05:53:47;;;;;;;7.50;4.20;;;;;;;23.40;71.98;97126.75;5049308;28;20115;-44
2022/07/17 05:56:16;;;;;;;6.57;3.88;;;;;;;23.20;76.38;97130.31;5053224;28;20072;-45
2022/07/17 05:58:44;;;;;;;5.65;3.88;;;;;;;23.37;74.50;97127.19;5050099;28;20359;-44
2022/07/17 06:01:14;;;;;;;6.22;3.50;;;;;;;24.02;77.58;97132.63;5046731;28;20124;-48
2022/07/17 06:03:42;;;;;;;6.18;3.70;;;;;;;23.05;85.31;97135.06;5046266;28;20068;-45
2022/07/17 06:06:11;;;;;;;4.47;3.40;;;;;;;22.92;88.02;97133.22;5048320;28;21503;-46
2022/07/17 06:08:39;;;;;;;5.57;3.70;;;;;;;22.13;96.87;97131.13;5041719;28;20084;-51
2022/07/17 06:11:08;;;;;;;5.05;3.35;;;;;;;21.78;100.00;97141.91;5032750;28;20075;-47
2022/07/17 06:13:36;;;;;;;4.97;3.35;;;;;;;22.12;100.00;97139.38;5044333;28;20531;-46
2022/07/17 06:16:05;;;;;;;5.35;3.22;;;;;;;22.09;100.00;97137.91;5046946;28;20079;-50
2022/07/17 06:18:35;;;;;;;5.43;3.50;;;;;;;22.61;100.00;97136.47;5049701;28;20084;-44
2022/07/17 06:21:04;;;;;;;5.47;3.60;;;;;;;22.51;100.00;97138.72;5051078;28;20080;-46
2022/07/17 06:23:33;;;;;;;5.88;3.50;;;;;;;22.25;100.00;97137.59;5048799;28;20104;-43
2022/07/17 06:26:01;;;;;;;6.95;3.40;;;;;;;21.86;100.00;97140.91;5050439;28;20081;-45
2022/07/17 06:28:29;;;;;;;5.35;3.28;;;;;;;21.72;100.00;97144.56;5048870;28;20065;-51
2022/07/17 06:30:58;;;;;;;5.40;3.63;;;;;;;22.21;100.00;97139.03;5048577;28;20060;-51
2022/07/17 06:33:27;;;;;;;8.00;3.40;;;;;;;22.33;100.00;97141.13;5047201;28;20083;-45
2022/07/17 06:35:57;;;;;;;8.15;3.45;;;;;;;22.22;100.00;97140.66;5042578;28;20060;-45
2022/07/17 06:38:26;;;;;;;7.15;3.45;;;;;;;22.52;100.00;97143.88;5049211;28;20065;-51
2022/07/17 06:40:54;;;;;;;5.40;2.78;;;;;;;22.31;100.00;97145.88;5048589;28;20073;-49
2022/07/17 06:43:23;;;;;;;7.88;3.28;;;;;;;22.23;100.00;97136.16;5052477;28;20071;-53
2022/07/17 06:45:53;;;;;;;5.55;3.40;;;;;;;22.58;100.00;97152.16;5044071;28;20072;-47
2022/07/17 06:48:22;;;;;;;6.15;3.15;;;;;;;22.86;100.00;97147.44;5050194;28;20091;-44
2022/07/17 06:50:51;;;;;;;7.25;3.30;;;;;;;22.80;100.00;97159.00;5029943;28;20072;-44
2022/07/17 06:53:20;;;;;;;7.30;3.33;;;;;;;22.85;100.00;97153.88;5048306;28;20534;-47
2022/07/17 06:55:49;;;;;;;7.72;3.85;;;;;;;22.82;99.85;97146.19;5048668;28;20069;-45
2022/07/17 06:58:17;;;;;;;4.25;3.25;;;;;;;22.69;100.00;97154.25;5047440;28;20069;-48
2022/07/17 07:00:46;;;;;;;5.55;3.30;;;;;;;23.56;97.82;97145.16;5049968;28;20080;-46
2022/07/17 07:03:14;;;;;;;4.43;3.35;;;;;;;23.43;94.97;97154.09;5047652;28;20372;-43
2022/07/17 07:05:43;;;;;;;5.80;3.70;;;;;;;23.71;100.00;97147.66;5044414;28;20473;-43
2022/07/17 07:08:11;;;;;;;4.03;3.50;;;;;;;23.76;92.31;97152.41;5043168;28;20091;-46
2022/07/17 07:10:42;;;;;;;3.53;3.13;;;;;;;23.82;94.08;97156.97;5047940;28;20604;-47
2022/07/17 07:13:11;;;;;;;6.50;3.50;;;;;;;23.59;96.50;97155.50;5050817;28;20083;-44
2022/07/17 07:15:40;;;;;;;6.00;3.30;;;;;;;23.30;97.12;97154.13;5051298;28;20510;-43
2022/07/17 07:18:09;;;;;;;4.75;3.25;;;;;;;23.71;98.04;97153.06;5035726;28;20092;-47
2022/07/17 07:20:38;;;;;;;4.72;3.30;;;;;;;23.72;91.39;97149.31;5042259;28;20084;-43
2022/07/17 07:23:06;;;;;;;4.15;3.45;;;;;;;24.04;84.97;97147.53;5042170;28;20080;-46
2022/07/17 07:25:34;;;;;;;5.10;3.28;;;;;;;24.11;89.16;97144.81;5040950;28;20543;-50
2022/07/17 07:28:05;;;;;;;4.60;3.17;;;;;;;24.16;86.56;97153.94;5041569;28;20104;-45
2022/07/17 07:30:33;;;;;;;7.00;3.00;;;;;;;24.29;91.66;97153.03;5043075;28;20549;-46
2022/07/17 07:33:02;;;;;;;4.38;2.85;;;;;;;24.47;90.86;97159.63;5042704;28;20084;-47
2022/07/17 07:35:30;;;;;;;5.65;3.10;;;;;;;24.31;87.67;97159.03;5042550;28;20534;-46
2022/07/17 07:37:58;;;;;;;4.68;2.80;;;;;;;24.87;80.81;97160.22;5042385;28;20072;-50
2022/07/17 07:40:26;;;;;;;4.30;3.05;;;;;;;25.21;76.01;97155.41;5043629;28;20103;-46
2022/07/17 07:42:55;;;;;;;6.03;2.80;;;;;;;25.10;71.40;97160.44;5042276;28;20080;-49
2022/07/17 07:45:25;;;;;;;3.80;2.75;;;;;;;24.78;71.73;97161.53;5041354;28;20103;-43
2022/07/17 07:47:53;;;;;;;5.35;2.90;;;;;;;24.67;72.07;97154.09;5043597;28;20065;-46
2022/07/17 07:50:23;;;;;;;8.07;2.85;;;;;;;24.65;69.91;97162.44;5042322;28;20328;-46
2022/07/17 07:52:52;;;;;;;4.25;2.60;;;;;;;24.85;67.95;97156.91;5040448;28;20084;-51
2022/07/17 07:55:21;;;;;;;4.32;2.75;;;;;;;25.20;67.14;97162.69;5040316;28;20084;-46
2022/07/17 07:57:50;;;;;;;5.20;3.05;;;;;;;25.17;69.36;97159.63;5038619;28;20044;-54
2022/07/17 08:00:19;;;;;;;3.55;2.20;;;;;;;25.27;63.04;97160.75;5043428;28;20068;-50
2022/07/17 08:02:48;;;;;;;3.42;2.38;;;;;;;25.67;61.26;97156.84;5039408;28;20091;-51
2022/07/17 08:05:17;;;;;;;3.65;2.30;;;;;;;25.45;63.12;97159.97;5040652;28;20080;-47
2022/07/17 08:07:45;;;;;;;4.32;2.55;;;;;;;25.60;59.68;97153.41;5040616;28;20136;-42
2022/07/17 08:10:14;;;;;;;6.38;2.40;;;;;;;25.39;61.54;97155.47;5042385;28;20064;-45
2022/07/17 08:12:42;;;;;;;4.72;2.28;;;;;;;26.05;59.78;97162.13;5039618;28;20076;-44
2022/07/17 08:15:13;;;;;;;2.85;2.10;;;;;;;25.76;57.87;97161.75;5041845;28;20072;-45
2022/07/17 08:17:42;;;;;;;5.25;2.50;;;;;;;25.87;60.31;97162.09;5042823;28;20075;-43
2022/07/17 08:20:13;;;;;;;4.07;2.42;;;;;;;26.15;57.94;97162.41;5041365;28;20073;-44
2022/07/17 08:22:43;;;;;;;4.13;2.50;;;;;;;25.78;58.45;97165.06;5041819;28;20119;-44
2022/07/17 08:25:31;;;;;;;5.53;2.22;;;;;;;26.21;54.57;97168.78;5044970;28;20567;-43
2022/07/17 08:28:00;;;;;;;5.10;2.35;;;;;;;26.55;52.40;97164.63;5041454;28;20075;-48
2022/07/17 08:30:29;;;;;;;4.68;1.83;;;;;;;26.34;50.67;97171.31;5044343;28;20079;-45
2022/07/17 08:32:58;;;;;;;3.92;2.28;;;;;;;26.83;48.48;97163.19;5041948;28;20079;-58
2022/07/17 08:35:27;;;;;;;4.68;2.50;;;;;;;26.91;48.14;97168.25;5041612;28;20076;-49
2022/07/17 08:37:56;;;;;;;2.97;1.67;;;;;;;26.94;47.46;97175.91;5043847;28;20072;-45
2022/07/17 08:40:31;;;;;;;4.90;1.80;;;;;;;26.82;44.15;97169.66;5042222;28;20087;-46
2022/07/17 08:43:01;;;;;;;3.00;2.17;;;;;;;26.83;42.30;97169.41;5037075;28;20480;-48
2022/07/17 08:45:29;;;;;;;4.90;2.20;;;;;;;26.99;44.61;97168.75;5041388;28;20089;-43
2022/07/17 08:48:00;;;;;;;5.10;1.80;;;;;;;27.56;48.01;97165.56;5046710;28;20068;-54
2022/07/17 08:50:32;;;;;;;5.10;2.28;;;;;;;26.38;42.10;97172.50;5043584;28;20076;-50
2022/07/17 08:53:01;;;;;;;4.30;2.30;;;;;;;26.87;41.32;97167.06;5040362;28;20127;-46
2022/07/17 08:55:31;;;;;;;8.90;2.42;;;;;;;26.75;42.18;97170.56;5046284;28;20517;-49
2022/07/17 08:57:59;;;;;;;3.97;2.10;;;;;;;26.80;41.76;97169.06;5041819;28;20080;-47
2022/07/17 09:00:30;;;;;;;8.57;2.40;;;;;;;27.74;41.35;97161.09;5045184;28;20089;-44
2022/07/17 09:03:00;;;;;;;2.65;1.77;;;;;;;27.09;42.27;97164.69;5045314;28;20073;-46
2022/07/17 09:05:31;;;;;;;5.68;2.28;;;;;;;26.78;41.76;97166.59;5048691;28;20091;-44
2022/07/17 09:08:00;;;;;;;2.95;1.98;;;;;;;27.53;41.95;97168.75;5045960;28;20084;-46
2022/07/17 09:10:33;;;;;;;2.55;1.92;;;;;;;27.81;43.61;97165.38;5044976;28;20519;-43
2022/07/17 09:13:02;;;;;;;3.70;2.15;;;;;;;27.38;43.75;97165.69;5040475;28;20483;-52
2022/07/17 09:15:34;;;;;;;4.35;2.38;;;;;;;27.36;44.09;97165.94;5045904;28;20523;-46
2022/07/17 09:18:02;;;;;;;3.42;2.13;;;;;;;28.17;41.67;97164.22;5046298;28;20110;-45
2022/07/17 09:20:32;;;;;;;4.30;2.38;;;;;;;27.39;42.05;97162.75;5044721;28;20140;-54
2022/07/17 09:23:02;;;;;;;4.13;2.13;;;;;;;27.44;42.18;97170.16;5041873;28;20091;-48
2022/07/17 09:25:35;;;;;;;4.15;2.53;;;;;;;27.16;41.84;97177.06;5045566;28;20080;-49
2022/07/17 09:28:05;;;;;;;6.13;2.10;;;;;;;27.64;41.50;97161.69;5044941;28;20084;-54
2022/07/17 09:30:35;;;;;;;3.58;2.47;;;;;;;27.91;40.15;97164.78;5042987;28;20068;-48
2022/07/17 09:33:07;;;;;;;3.15;2.08;;;;;;;27.52;40.35;97169.81;5045623;28;20061;-48
2022/07/17 09:35:45;;;;;;;5.38;2.20;;;;;;;27.76;39.53;97161.72;5046389;28;20073;-48
2022/07/17 09:38:14;;;;;;;4.43;2.20;;;;;;;27.77;39.18;97163.34;5043561;28;20060;-49
2022/07/17 09:43:44;;;;;;;4.10;2.00;;;;;;;28.43;39.14;97158.53;5044421;28;20084;-43
2022/07/17 09:46:17;;;;;;;2.45;2.10;;;;;;;27.91;39.21;97162.88;5045227;28;20045;-43
2022/07/17 09:48:48;;;;;;;3.92;2.30;;;;;;;27.87;40.66;97160.84;5039499;28;20083;-50
2022/07/17 09:51:20;;;;;;;5.50;2.55;;;;;;;28.23;37.75;97167.88;5048254;28;20083;-47
2022/07/17 09:53:50;;;;;;;5.78;2.15;;;;;;;28.50;37.95;97170.91;5045127;28;20081;-45
2022/07/17 09:56:21;;;;;;;3.50;2.15;;;;;;;27.97;37.66;97177.34;5048010;28;20041;-44
2022/07/17 09:58:51;;;;;;;4.10;2.20;;;;;;;28.44;38.43;97174.56;5046350;28;20633;-53
2022/07/17 10:01:20;;;;;;;3.42;2.30;;;;;;;28.47;37.33;97168.66;5042226;28;20179;-44
2022/07/17 10:03:51;;;;;;;5.03;2.08;;;;;;;28.13;37.00;97173.91;5043965;28;20089;-49
2022/07/17 10:06:23;;;;;;;3.75;2.15;;;;;;;28.81;38.88;97171.47;5045197;28;20080;-50
2022/07/17 10:08:52;;;;;;;5.22;2.50;;;;;;;28.95;37.66;97174.72;5038799;28;20092;-49
2022/07/17 10:11:23;;;;;;;4.38;2.47;;;;;;;28.58;36.94;97167.78;5039181;28;20287;-48
2022/07/17 10:13:53;;;;;;;4.57;2.10;;;;;;;28.17;37.50;97174.25;5049389;28;20081;-46
2022/07/17 10:16:26;;;;;;;3.08;2.20;;;;;;;28.38;36.78;97170.06;5038469;28;20072;-42
2022/07/17 10:18:57;;;;;;;3.35;2.13;;;;;;;28.21;36.83;97178.13;5046678;28;20081;-46
2022/07/17 10:21:29;;;;;;;4.43;2.05;;;;;;;28.79;37.10;97173.59;5044572;28;20085;-48
2022/07/17 10:24:07;;;;;;;4.45;2.30;;;;;;;28.81;34.88;97179.63;5050189;28;20084;-51
2022/07/17 10:26:40;;;;;;;3.00;2.10;;;;;;;28.76;34.94;97177.63;5041073;28;20080;-46
2022/07/17 10:29:09;;;;;;;3.85;2.10;;;;;;;28.29;35.62;97169.63;5044554;28;20096;-49
2022/07/17 10:31:50;;;;;;;4.10;1.80;;;;;;;28.28;35.76;97169.84;5049974;28;20160;-49
2022/07/17 10:34:19;;;;;;;2.70;2.00;;;;;;;28.12;35.99;97180.41;5050360;28;20539;-46
2022/07/17 10:36:48;;;;;;;4.18;2.10;;;;;;;28.62;34.30;97173.56;5050589;28;20092;-44
2022/07/17 10:39:18;;;;;;;6.38;2.03;;;;;;;28.68;34.48;97169.06;5050511;28;20087;-47
2022/07/17 10:41:57;;;;;;;3.33;1.80;;;;;;;28.83;34.92;97178.28;5050317;28;20088;-46
2022/07/17 10:44:26;;;;;;;3.70;1.92;;;;;;;28.97;33.60;97170.66;5048698;28;20542;-50
2022/07/17 10:46:55;;;;;;;3.40;2.03;;;;;;;28.84;34.65;97169.09;5049820;28;20530;-50
2022/07/17 10:49:23;;;;;;;3.95;2.25;;;;;;;29.05;33.71;97164.88;5042336;28;20092;-46
2022/07/17 10:51:54;;;;;;;4.03;2.20;;;;;;;28.10;33.41;97166.25;5050656;28;20096;-49
2022/07/17 10:54:34;;;;;;;3.17;2.00;;;;;;;28.70;32.74;97150.63;5049062;28;20459;-44
2022/07/17 10:57:03;;;;;;;3.20;2.10;;;;;;;29.29;33.08;97160.13;5043679;28;20149;-47
2022/07/17 10:59:33;;;;;;;3.60;2.00;;;;;;;29.25;31.96;97156.25;5048700;28;20080;-47
2022/07/17 11:02:01;;;;;;;4.55;2.28;;;;;;;28.81;31.75;97155.19;5039933;28;20841;-46
2022/07/17 11:04:37;;;;;;;5.00;1.70;;;;;;;29.15;32.14;97155.25;5049667;28;20077;-47
2022/07/17 11:07:15;;;;;;;4.38;1.95;;;;;;;29.10;34.69;97147.84;5050072;28;20084;-48
2022/07/17 11:09:48;;;;;;;3.47;1.80;;;;;;;29.60;32.99;97147.03;5046387;28;20075;-44
2022/07/17 11:12:17;;;;;;;2.60;1.88;;;;;;;29.48;31.65;97147.09;5048901;28;20849;-45
2022/07/17 11:14:46;;;;;;;2.85;1.70;;;;;;;29.11;32.83;97141.31;5049534;28;20087;-48
2022/07/17 11:17:14;;;;;;;3.70;1.90;;;;;;;28.44;33.78;97139.28;5050593;28;20084;-50
2022/07/17 11:19:45;;;;;;;4.15;1.90;;;;;;;29.09;34.14;97135.34;5043401;28;20073;-45
2022/07/17 11:22:15;;;;;;;3.83;2.03;;;;;;;29.58;32.91;97128.22;5049121;28;20084;-46
2022/07/17 11:24:45;;;;;;;2.83;2.03;;;;;;;28.59;34.15;97131.44;5046734;28;20085;-45
2022/07/17 11:27:20;;;;;;;3.05;1.80;;;;;;;29.62;32.60;97114.16;5049092;28;20107;-43
2022/07/17 11:29:52;;;;;;;2.42;1.80;;;;;;;29.53;32.96;97111.84;5041275;28;20097;-51
2022/07/17 11:32:20;;;;;;;4.75;1.80;;;;;;;29.65;32.23;97119.09;5047720;28;20068;-44
2022/07/17 11:34:49;;;;;;;3.70;1.90;;;;;;;29.94;31.84;97115.16;5048584;28;20077;-47
2022/07/17 11:37:21;;;;;;;4.28;2.22;;;;;;;29.01;34.16;97119.44;5048121;28;20085;-48
2022/07/17 11:39:50;;;;;;;3.58;2.00;;;;;;;29.41;33.98;97113.81;5049467;28;20468;-50
2022/07/17 11:42:20;;;;;;;2.65;1.80;;;;;;;29.28;33.24;97123.13;5049231;28;20076;-50